createdAt,value
2023-04-16T00:01:19.056Z,9.63
2023-04-16T00:03:47.453Z,9.63
2023-04-16T00:06:15.824Z,9.63
2023-04-16T00:08:44.216Z,9.62
2023-04-16T00:11:12.755Z,9.62
2023-04-16T00:13:41.294Z,9.63
2023-04-16T00:16:11.005Z,9.60
2023-04-16T00:18:39.361Z,9.59
2023-04-16T00:21:08.172Z,9.56
2023-04-16T00:23:36.276Z,9.55
2023-04-16T00:26:04.484Z,9.55
2023-04-16T00:28:32.553Z,9.55
2023-04-16T00:31:02.347Z,9.55
2023-04-16T00:33:31.865Z,9.54
2023-04-16T00:35:59.977Z,9.54
2023-04-16T00:38:30.317Z,9.54
2023-04-16T00:40:58.899Z,9.56
2023-04-16T00:43:27.800Z,9.55
2023-04-16T00:45:57.936Z,9.59
2023-04-16T00:48:27.829Z,9.61
2023-04-16T00:50:57.366Z,9.63
2023-04-16T00:53:25.596Z,9.64
2023-04-16T00:55:53.711Z,9.64
2023-04-16T00:58:21.912Z,9.68
2023-04-16T01:00:50.062Z,9.67
2023-04-16T01:03:18.913Z,9.68
2023-04-16T01:05:49.322Z,9.68
2023-04-16T01:08:19.850Z,9.71
2023-04-16T01:10:48.017Z,9.74
2023-04-16T01:13:16.104Z,9.77
2023-04-16T01:15:44.195Z,9.78
2023-04-16T01:18:16.237Z,9.80
2023-04-16T01:20:45.729Z,9.80
2023-04-16T01:23:13.912Z,9.81
2023-04-16T01:25:41.955Z,9.78
2023-04-16T01:28:09.993Z,9.79
2023-04-16T01:30:38.105Z,9.77
2023-04-16T01:33:06.350Z,9.76
2023-04-16T01:35:34.440Z,9.79
2023-04-16T01:38:04.229Z,9.82
2023-04-16T01:40:32.328Z,9.81
2023-04-16T01:43:00.539Z,9.84
2023-04-16T01:45:28.603Z,9.83
2023-04-16T01:47:56.743Z,9.85
2023-04-16T01:50:25.025Z,9.88
2023-04-16T01:52:53.101Z,9.87
2023-04-16T01:55:22.682Z,9.87
2023-04-16T01:57:50.796Z,9.90
2023-04-16T02:00:18.921Z,9.93
2023-04-16T02:02:47.373Z,9.95
2023-04-16T02:05:15.623Z,9.94
2023-04-16T02:07:43.708Z,9.91
2023-04-16T02:10:11.913Z,9.88
2023-04-16T02:12:41.502Z,9.88
2023-04-16T02:15:10.445Z,9.89
2023-04-16T02:17:38.543Z,9.88
2023-04-16T02:20:09.435Z,9.89
2023-04-16T02:22:37.507Z,9.87
2023-04-16T02:25:06.461Z,9.85
2023-04-16T02:27:34.871Z,9.85
2023-04-16T02:30:04.494Z,9.84
2023-04-16T02:32:32.708Z,9.83
2023-04-16T02:35:00.807Z,9.83
2023-04-16T02:37:28.944Z,9.87
2023-04-16T02:39:57.951Z,9.88
2023-04-16T02:42:26.084Z,9.88
2023-04-16T02:44:54.148Z,9.88
2023-04-16T02:47:23.732Z,9.89
2023-04-16T02:49:51.802Z,9.91
2023-04-16T02:52:19.855Z,9.92
2023-04-16T02:54:48.076Z,9.93
2023-04-16T02:57:16.175Z,9.97
2023-04-16T02:59:44.251Z,9.98
2023-04-16T03:02:12.357Z,9.99
2023-04-16T03:04:41.948Z,10.00
2023-04-16T03:07:11.163Z,9.98
2023-04-16T03:09:39.308Z,9.96
2023-04-16T03:12:07.375Z,9.95
2023-04-16T03:14:35.467Z,9.94
2023-04-16T03:17:03.595Z,9.94
2023-04-16T03:19:31.752Z,9.96
2023-04-16T03:22:01.198Z,10.00
2023-04-16T03:24:29.616Z,10.03
2023-04-16T03:26:59.017Z,10.05
2023-04-16T03:29:27.315Z,10.06
2023-04-16T03:31:55.379Z,10.09
2023-04-16T03:34:23.456Z,10.10
2023-04-16T03:36:51.533Z,10.11
2023-04-16T03:39:20.988Z,10.11
2023-04-16T03:41:49.071Z,10.12
2023-04-16T03:44:17.128Z,10.14
2023-04-16T03:46:45.251Z,10.15
2023-04-16T03:49:13.362Z,10.16
2023-04-16T03:51:41.429Z,10.19
2023-04-16T03:54:09.485Z,10.21
2023-04-16T03:56:40.955Z,10.26
2023-04-16T03:59:09.289Z,10.31
2023-04-16T04:01:37.582Z,10.35
2023-04-16T04:04:05.871Z,10.40
2023-04-16T04:06:34.034Z,10.37
2023-04-16T04:09:02.136Z,10.39
2023-04-16T04:11:30.245Z,10.41
2023-04-16T04:13:59.758Z,10.37
2023-04-16T04:16:27.948Z,10.36
2023-04-16T04:18:56.413Z,10.37
2023-04-16T04:21:24.498Z,10.40
2023-04-16T04:23:53.576Z,10.40
2023-04-16T04:26:22.542Z,10.41
2023-04-16T04:28:51.240Z,10.40
2023-04-16T04:31:20.786Z,10.34
2023-04-16T04:33:48.867Z,10.31
2023-04-16T04:36:16.921Z,10.31
2023-04-16T04:38:45.013Z,10.30
2023-04-16T04:41:13.171Z,10.31
2023-04-16T04:43:41.215Z,10.33
2023-04-16T04:46:09.413Z,10.36
2023-04-16T04:48:38.902Z,10.35
2023-04-16T04:51:07.145Z,10.36
2023-04-16T04:53:35.230Z,10.37
2023-04-16T04:56:12.320Z,10.40
2023-04-16T04:58:41.483Z,10.40
2023-04-16T05:01:09.642Z,10.41
2023-04-16T05:03:39.403Z,10.41
2023-04-16T05:06:08.481Z,10.43
2023-04-16T05:08:36.595Z,10.44
2023-04-16T05:11:04.825Z,10.42
2023-04-16T05:13:32.941Z,10.43
2023-04-16T05:16:01.183Z,10.44
2023-04-16T05:18:29.283Z,10.45
2023-04-16T05:20:58.759Z,10.49
2023-04-16T05:23:26.856Z,10.51
2023-04-16T05:25:54.933Z,10.54
2023-04-16T05:28:23.008Z,10.59
2023-04-16T05:30:51.077Z,10.59
2023-04-16T05:33:19.228Z,10.62
2023-04-16T05:35:47.273Z,10.64
2023-04-16T05:38:16.713Z,10.61
2023-04-16T05:40:44.783Z,10.58
2023-04-16T05:43:12.869Z,10.58
2023-04-16T05:45:41.478Z,10.57
2023-04-16T05:48:10.093Z,10.53
2023-04-16T05:50:38.349Z,10.57
2023-04-16T05:53:07.865Z,10.63
2023-04-16T05:55:37.746Z,10.62
2023-04-16T05:58:05.893Z,10.62
2023-04-16T06:00:34.255Z,10.61
2023-04-16T06:03:03.184Z,10.63
2023-04-16T06:05:32.136Z,10.69
2023-04-16T06:08:00.309Z,10.77
2023-04-16T06:10:28.461Z,10.83
2023-04-16T06:12:57.917Z,10.89
2023-04-16T06:15:25.976Z,10.95
2023-04-16T06:17:55.693Z,10.96
2023-04-16T06:20:24.108Z,10.97
2023-04-16T06:22:52.209Z,11.02
2023-04-16T06:25:20.296Z,11.06
2023-04-16T06:27:48.512Z,11.05
2023-04-16T06:30:18.033Z,11.06
2023-04-16T06:32:46.585Z,11.06
2023-04-16T06:35:14.719Z,11.04
2023-04-16T06:37:42.800Z,11.04
2023-04-16T06:40:11.789Z,10.99
2023-04-16T06:42:39.884Z,11.00
2023-04-16T06:45:09.699Z,10.95
2023-04-16T06:47:39.248Z,10.92
2023-04-16T06:50:08.376Z,10.94
2023-04-16T06:52:36.452Z,11.01
2023-04-16T06:55:04.849Z,11.03
2023-04-16T06:57:33.924Z,11.04
2023-04-16T07:00:03.809Z,11.03
2023-04-16T07:02:32.264Z,11.07
2023-04-16T07:05:01.834Z,11.14
2023-04-16T07:07:29.997Z,11.22
2023-04-16T07:09:58.094Z,11.29
2023-04-16T07:12:27.205Z,11.28
2023-04-16T07:14:55.740Z,11.29
2023-04-16T07:17:26.698Z,11.30
2023-04-16T07:19:54.765Z,11.25
2023-04-16T07:22:24.209Z,11.18
2023-04-16T07:24:52.305Z,11.13
2023-04-16T07:27:20.364Z,11.13
2023-04-16T07:29:50.286Z,11.10
2023-04-16T07:32:18.531Z,11.09
2023-04-16T07:34:46.646Z,11.10
2023-04-16T07:37:14.778Z,11.10
2023-04-16T07:39:44.190Z,11.07
2023-04-16T07:42:12.319Z,11.07
2023-04-16T07:44:40.445Z,11.03
2023-04-16T07:47:08.601Z,11.00
2023-04-16T07:49:36.697Z,11.02
2023-04-16T07:52:04.807Z,11.05
2023-04-16T07:54:32.930Z,11.06
2023-04-16T07:57:02.412Z,11.07
2023-04-16T07:59:30.592Z,11.04
2023-04-16T08:01:58.683Z,11.04
2023-04-16T08:04:27.380Z,11.07
2023-04-16T08:06:55.743Z,11.10
2023-04-16T08:09:24.988Z,11.11
2023-04-16T08:11:53.094Z,11.08
2023-04-16T08:14:22.844Z,11.06
2023-04-16T08:16:51.120Z,11.06
2023-04-16T08:19:19.493Z,11.06
2023-04-16T08:21:48.073Z,11.09
2023-04-16T08:24:16.198Z,11.09
2023-04-16T08:26:44.269Z,11.08
2023-04-16T08:29:12.565Z,11.08
2023-04-16T08:31:42.578Z,11.10
2023-04-16T08:34:12.361Z,11.12
2023-04-16T08:36:41.906Z,11.12
2023-04-16T08:39:10.347Z,11.14
2023-04-16T08:41:39.803Z,11.16
2023-04-16T08:44:10.045Z,11.17
2023-04-16T08:46:39.059Z,11.17
2023-04-16T08:49:09.639Z,11.19
2023-04-16T08:51:39.630Z,11.22
2023-04-16T08:54:10.678Z,11.16
2023-04-16T08:56:42.458Z,11.09
2023-04-16T08:59:11.843Z,11.06
2023-04-16T09:01:41.876Z,11.05
2023-04-16T09:04:11.915Z,11.03
2023-04-16T09:06:41.605Z,11.03
2023-04-16T09:09:10.261Z,11.06
2023-04-16T09:11:39.358Z,11.07
2023-04-16T09:14:10.437Z,11.04
2023-04-16T09:16:38.699Z,11.07
2023-04-16T09:19:07.113Z,11.07
2023-04-16T09:21:36.680Z,11.00
2023-04-16T09:24:05.162Z,10.99
2023-04-16T09:26:33.679Z,11.00
2023-04-16T09:29:01.855Z,11.04
2023-04-16T09:31:30.133Z,11.08
2023-04-16T09:34:05.966Z,11.11
2023-04-16T09:36:34.529Z,11.10
2023-04-16T09:39:04.829Z,11.15
2023-04-16T09:41:35.928Z,11.20
2023-04-16T09:44:05.754Z,11.24
2023-04-16T09:46:36.859Z,11.32
2023-04-16T09:49:09.662Z,11.33
2023-04-16T09:51:39.039Z,11.29
2023-04-16T09:54:08.755Z,11.32
2023-04-16T09:56:41.595Z,11.40
2023-04-16T09:59:17.691Z,11.44
2023-04-16T10:01:47.084Z,11.44
2023-04-16T10:04:15.632Z,11.44
2023-04-16T10:06:44.164Z,11.48
2023-04-16T10:09:13.644Z,11.50
2023-04-16T10:11:41.897Z,11.48
2023-04-16T10:14:10.280Z,11.42
2023-04-16T10:16:41.186Z,11.40
2023-04-16T10:19:09.866Z,11.41
2023-04-16T10:21:38.301Z,11.43
2023-04-16T10:24:07.384Z,11.43
2023-04-16T10:26:37.192Z,11.44
2023-04-16T10:29:07.799Z,11.47
2023-04-16T10:31:36.821Z,11.50
2023-04-16T10:34:05.110Z,11.48
2023-04-16T10:36:37.879Z,11.52
2023-04-16T10:39:06.029Z,11.56
2023-04-16T10:41:34.570Z,11.53
2023-04-16T10:44:09.779Z,11.49
2023-04-16T10:46:39.662Z,11.45
2023-04-16T10:49:15.081Z,11.37
2023-04-16T10:51:43.546Z,11.30
2023-04-16T10:54:22.823Z,11.22
2023-04-16T10:56:51.461Z,11.16
2023-04-16T10:59:22.202Z,11.12
2023-04-16T11:01:52.307Z,11.04
2023-04-16T11:04:37.079Z,10.99
2023-04-16T11:07:19.837Z,11.00
2023-04-16T11:09:53.095Z,11.02
2023-04-16T11:12:22.538Z,11.10
2023-04-16T11:14:53.359Z,11.15
2023-04-16T11:17:21.806Z,11.17
2023-04-16T11:19:50.141Z,11.17
2023-04-16T11:22:21.844Z,11.11
2023-04-16T11:24:54.705Z,11.12
2023-04-16T11:27:23.359Z,11.15
2023-04-16T11:30:00.105Z,11.16
2023-04-16T11:32:28.503Z,11.19
2023-04-16T11:34:56.647Z,11.27
2023-04-16T11:37:34.120Z,11.36
2023-04-16T11:40:04.644Z,11.45
2023-04-16T11:42:32.737Z,11.48
2023-04-16T11:45:02.237Z,11.53
2023-04-16T11:47:31.254Z,11.55
2023-04-16T11:49:59.610Z,11.50
2023-04-16T11:52:28.714Z,11.50
2023-04-16T11:54:56.862Z,11.52
2023-04-16T11:57:26.767Z,11.55
2023-04-16T12:00:02.473Z,11.60
2023-04-16T12:02:40.202Z,11.63
2023-04-16T12:05:26.805Z,11.63
2023-04-16T12:07:55.178Z,11.66
2023-04-16T12:10:23.737Z,11.79
2023-04-16T12:12:51.924Z,11.95
2023-04-16T12:15:20.063Z,12.08
2023-04-16T12:17:50.612Z,12.20
2023-04-16T12:20:18.730Z,12.24
2023-04-16T12:22:49.309Z,12.33
2023-04-16T12:25:18.763Z,12.34
2023-04-16T12:27:50.697Z,12.37
2023-04-16T12:30:22.464Z,12.36
2023-04-16T12:32:52.971Z,12.41
2023-04-16T12:35:34.286Z,12.42
2023-04-16T12:38:03.545Z,12.43
2023-04-16T12:40:31.721Z,12.45
2023-04-16T12:42:59.818Z,12.45
2023-04-16T12:45:27.925Z,12.48
2023-04-16T12:47:57.609Z,12.55
2023-04-16T12:50:25.989Z,12.59
2023-04-16T12:52:54.065Z,12.62
2023-04-16T12:55:22.308Z,12.56
2023-04-16T12:57:52.849Z,12.52
2023-04-16T13:00:21.378Z,12.53
2023-04-16T13:02:49.575Z,12.61
2023-04-16T13:05:19.612Z,12.63
2023-04-16T13:07:47.778Z,12.69
2023-04-16T13:10:16.686Z,12.74
2023-04-16T13:12:46.531Z,12.75
2023-04-16T13:15:14.704Z,12.80
2023-04-16T13:17:42.890Z,12.84
2023-04-16T13:20:11.846Z,12.88
2023-04-16T13:22:41.593Z,12.93
2023-04-16T13:25:10.973Z,13.00
2023-04-16T13:27:39.040Z,12.98
2023-04-16T13:30:08.558Z,12.91
2023-04-16T13:32:36.912Z,12.89
2023-04-16T13:35:05.434Z,12.89
2023-04-16T13:37:33.518Z,12.90
2023-04-16T13:40:03.018Z,12.85
2023-04-16T13:42:32.377Z,12.76
2023-04-16T13:45:01.258Z,12.77
2023-04-16T13:47:29.554Z,12.78
2023-04-16T13:49:57.688Z,12.81
2023-04-16T13:52:25.933Z,12.83
2023-04-16T13:54:54.014Z,12.84
2023-04-16T13:57:23.501Z,12.86
2023-04-16T13:59:51.637Z,12.80
2023-04-16T14:02:19.788Z,12.77
2023-04-16T14:04:47.908Z,12.81
2023-04-16T14:07:17.137Z,12.82
2023-04-16T14:09:45.264Z,12.83
2023-04-16T14:12:13.378Z,12.86
2023-04-16T14:14:43.037Z,12.78
2023-04-16T14:17:11.262Z,12.70
2023-04-16T14:19:39.403Z,12.72
2023-04-16T14:22:09.279Z,12.66
2023-04-16T14:24:37.700Z,12.65
2023-04-16T14:27:05.870Z,12.62
2023-04-16T14:29:34.067Z,12.57
2023-04-16T14:32:03.736Z,12.56
2023-04-16T14:34:31.964Z,12.60
2023-04-16T14:37:00.063Z,12.64
2023-04-16T14:39:28.220Z,12.67
2023-04-16T14:41:56.407Z,12.71
2023-04-16T14:44:24.501Z,12.79
2023-04-16T14:46:52.840Z,12.77
2023-04-16T14:49:22.357Z,12.72
2023-04-16T14:51:53.391Z,12.71
2023-04-16T14:54:21.500Z,12.72
2023-04-16T14:56:50.797Z,12.67
2023-04-16T14:59:18.854Z,12.57
2023-04-16T15:01:47.294Z,12.48
2023-04-16T15:04:16.196Z,12.44
2023-04-16T15:06:46.603Z,12.42
2023-04-16T15:09:14.887Z,12.41
2023-04-16T15:11:43.088Z,12.40
2023-04-16T15:14:11.401Z,12.43
2023-04-16T15:16:39.700Z,12.45
2023-04-16T15:19:07.921Z,12.49
2023-04-16T15:21:36.144Z,12.46
2023-04-16T15:24:05.864Z,12.46
2023-04-16T15:26:33.993Z,12.48
2023-04-16T15:29:02.142Z,12.57
2023-04-16T15:31:30.462Z,12.63
2023-04-16T15:33:59.628Z,12.64
2023-04-16T15:36:27.786Z,12.65
2023-04-16T15:38:55.880Z,12.71
2023-04-16T15:41:25.639Z,12.75
2023-04-16T15:43:53.710Z,12.69
2023-04-16T15:46:24.746Z,12.64
2023-04-16T15:48:52.966Z,12.59
2023-04-16T15:51:21.086Z,12.52
2023-04-16T15:53:49.920Z,12.49
2023-04-16T15:56:18.064Z,12.51
2023-04-16T15:58:47.989Z,12.52
2023-04-16T16:01:16.433Z,12.56
2023-04-16T16:03:44.714Z,12.59
2023-04-16T16:06:12.957Z,12.65
2023-04-16T16:08:43.598Z,12.73
2023-04-16T16:11:12.235Z,12.77
2023-04-16T16:13:41.796Z,12.75
2023-04-16T16:16:11.449Z,12.75
2023-04-16T16:18:39.620Z,12.74
2023-04-16T16:21:07.781Z,12.69
2023-04-16T16:23:36.120Z,12.62
2023-04-16T16:26:06.115Z,12.64
2023-04-16T16:28:37.524Z,12.69
2023-04-16T16:31:06.199Z,12.65
2023-04-16T16:33:36.890Z,12.65
2023-04-16T16:36:06.697Z,12.67
2023-04-16T16:38:34.754Z,12.71
2023-04-16T16:41:02.809Z,12.67
2023-04-16T16:43:31.062Z,12.57
2023-04-16T16:45:59.130Z,12.53
2023-04-16T16:48:27.261Z,12.47
2023-04-16T16:50:56.698Z,12.41
2023-04-16T16:53:24.851Z,12.38
2023-04-16T16:55:52.930Z,12.36
2023-04-16T16:58:21.005Z,12.31
2023-04-16T17:00:49.150Z,12.31
2023-04-16T17:03:17.455Z,12.27
2023-04-16T17:05:45.684Z,12.17
2023-04-16T17:08:15.160Z,12.13
2023-04-16T17:10:43.850Z,12.12
2023-04-16T17:13:13.655Z,12.08
2023-04-16T17:15:42.234Z,12.10
2023-04-16T17:18:10.422Z,12.08
2023-04-16T17:20:38.544Z,12.06
2023-04-16T17:23:06.675Z,12.03
2023-04-16T17:25:36.277Z,11.96
2023-04-16T17:28:05.032Z,11.95
2023-04-16T17:30:33.116Z,11.93
2023-04-16T17:33:03.643Z,11.92
2023-04-16T17:35:31.950Z,11.93
2023-04-16T17:38:00.170Z,11.91
2023-04-16T17:40:28.394Z,11.84
2023-04-16T17:42:58.002Z,11.76
2023-04-16T17:45:26.119Z,11.72
2023-04-16T17:47:54.624Z,11.70
2023-04-16T17:50:22.846Z,11.68
2023-04-16T17:52:50.916Z,11.62
2023-04-16T17:55:18.973Z,11.57
2023-04-16T17:57:47.072Z,11.51
2023-04-16T18:00:17.760Z,11.45
2023-04-16T18:02:46.019Z,11.39
2023-04-16T18:05:14.254Z,11.35
2023-04-16T18:07:43.686Z,11.33
2023-04-16T18:10:11.965Z,11.33
2023-04-16T18:12:40.118Z,11.29
2023-04-16T18:15:09.308Z,11.23
2023-04-16T18:17:38.936Z,11.20
2023-04-16T18:20:10.598Z,11.22
2023-04-16T18:22:38.685Z,11.28
2023-04-16T18:25:07.853Z,11.26
2023-04-16T18:27:36.051Z,11.28
2023-04-16T18:30:04.738Z,11.28
2023-04-16T18:32:33.367Z,11.28
2023-04-16T18:35:03.333Z,11.30
2023-04-16T18:37:31.412Z,11.29
2023-04-16T18:39:59.516Z,11.30
2023-04-16T18:42:29.385Z,11.32
2023-04-16T18:44:59.317Z,11.32
2023-04-16T18:47:27.736Z,11.31
2023-04-16T18:49:55.915Z,11.31
2023-04-16T18:52:25.889Z,11.31
2023-04-16T18:54:54.160Z,11.28
2023-04-16T18:57:22.245Z,11.27
2023-04-16T18:59:50.378Z,11.23
2023-04-16T19:02:18.492Z,11.20
2023-04-16T19:04:46.642Z,11.17
2023-04-16T19:07:14.749Z,11.15
2023-04-16T19:09:44.246Z,11.11
2023-04-16T19:12:12.322Z,11.07
2023-04-16T19:14:40.493Z,11.03
2023-04-16T19:17:08.576Z,11.01
2023-04-16T19:19:36.733Z,10.97
2023-04-16T19:22:04.841Z,10.95
2023-04-16T19:24:34.206Z,10.92
2023-04-16T19:27:03.797Z,10.89
2023-04-16T19:29:34.146Z,10.87
2023-04-16T19:32:02.828Z,10.84
2023-04-16T19:34:32.082Z,10.83
2023-04-16T19:37:00.156Z,10.82
2023-04-16T19:39:28.715Z,10.79
2023-04-16T19:41:57.757Z,10.77
2023-04-16T19:44:27.657Z,10.76
2023-04-16T19:46:56.303Z,10.74
2023-04-16T19:49:25.234Z,10.73
2023-04-16T19:51:53.326Z,10.71
2023-04-16T19:54:21.433Z,10.70
2023-04-16T19:56:51.705Z,10.69
2023-04-16T19:59:20.498Z,10.67
2023-04-16T20:01:50.085Z,10.65
2023-04-16T20:04:18.446Z,10.63
2023-04-16T20:06:46.940Z,10.63
2023-04-16T20:09:15.066Z,10.60
2023-04-16T20:11:43.137Z,10.58
2023-04-16T20:14:12.028Z,10.56
2023-04-16T20:16:40.838Z,10.54
2023-04-16T20:19:11.101Z,10.54
2023-04-16T20:21:40.375Z,10.52
2023-04-16T20:24:10.716Z,10.51
2023-04-16T20:26:38.871Z,10.52
2023-04-16T20:29:06.949Z,10.51
2023-04-16T20:31:35.063Z,10.51
2023-04-16T20:34:03.867Z,10.52
2023-04-16T20:36:33.347Z,10.51
2023-04-16T20:39:02.216Z,10.53
2023-04-16T20:41:30.866Z,10.52
2023-04-16T20:44:05.129Z,10.54
2023-04-16T20:46:34.310Z,10.54
2023-04-16T20:49:02.419Z,10.54
2023-04-16T20:51:31.586Z,10.55
2023-04-16T20:54:01.232Z,10.53
2023-04-16T20:56:31.872Z,10.52
2023-04-16T20:58:59.970Z,10.50
2023-04-16T21:01:28.160Z,10.48
2023-04-16T21:03:56.498Z,10.46
2023-04-16T21:06:24.924Z,10.43
2023-04-16T21:08:53.025Z,10.41
2023-04-16T21:11:23.201Z,10.39
2023-04-16T21:13:51.271Z,10.39
2023-04-16T21:16:19.407Z,10.37
2023-04-16T21:18:47.520Z,10.35
2023-04-16T21:21:15.773Z,10.34
2023-04-16T21:23:43.918Z,10.34
2023-04-16T21:26:12.055Z,10.35
2023-04-16T21:28:41.540Z,10.34
2023-04-16T21:31:09.665Z,10.34
2023-04-16T21:33:37.778Z,10.32
2023-04-16T21:36:06.456Z,10.31
2023-04-16T21:38:34.654Z,10.30
2023-04-16T21:41:02.932Z,10.30
2023-04-16T21:43:32.195Z,10.28
2023-04-16T21:46:01.705Z,10.29
2023-04-16T21:48:29.778Z,10.28
2023-04-16T21:50:59.193Z,10.28
2023-04-16T21:53:28.007Z,10.28
2023-04-16T21:55:56.207Z,10.26
2023-04-16T21:58:25.687Z,10.24
2023-04-16T22:00:54.059Z,10.24
2023-04-16T22:03:26.380Z,10.23
2023-04-16T22:06:00.700Z,10.22
2023-04-16T22:08:29.254Z,10.21
2023-04-16T22:10:59.109Z,10.21
2023-04-16T22:13:27.256Z,10.17
2023-04-16T22:15:56.029Z,10.16
2023-04-16T22:18:25.799Z,10.16
2023-04-16T22:20:54.972Z,10.14
2023-04-16T22:23:23.209Z,10.12
2023-04-16T22:25:51.799Z,10.12
2023-04-16T22:28:19.899Z,10.10
2023-04-16T22:30:48.025Z,10.10
2023-04-16T22:33:16.302Z,10.07
2023-04-16T22:35:46.083Z,10.05
2023-04-16T22:38:14.228Z,10.02
2023-04-16T22:40:42.359Z,10.00
2023-04-16T22:43:10.529Z,9.99
2023-04-16T22:45:38.731Z,9.97
2023-04-16T22:48:07.231Z,9.95
2023-04-16T22:50:35.396Z,9.93
2023-04-16T22:53:04.903Z,9.91
2023-04-16T22:55:32.998Z,9.90
2023-04-16T22:58:01.188Z,9.86
2023-04-16T23:00:29.675Z,9.82
2023-04-16T23:02:57.863Z,9.79
2023-04-16T23:05:26.041Z,9.76
2023-04-16T23:07:54.151Z,9.76
2023-04-16T23:10:23.635Z,9.73
2023-04-16T23:12:51.687Z,9.71
2023-04-16T23:15:19.998Z,9.69
2023-04-16T23:17:48.132Z,9.68
2023-04-16T23:20:16.332Z,9.67
2023-04-16T23:22:44.550Z,9.64
2023-04-16T23:25:12.626Z,9.62
2023-04-16T23:27:42.083Z,9.61
2023-04-16T23:30:10.954Z,9.59
2023-04-16T23:32:39.101Z,9.57
2023-04-16T23:35:08.262Z,9.56
2023-04-16T23:37:36.381Z,9.55
2023-04-16T23:40:04.952Z,9.53
2023-04-16T23:42:33.025Z,9.51
2023-04-16T23:45:02.528Z,9.50
2023-04-16T23:47:30.751Z,9.49
2023-04-16T23:49:58.869Z,9.46
2023-04-16T23:52:27.052Z,9.44
2023-04-16T23:54:55.142Z,9.44
2023-04-16T23:57:23.298Z,9.43
2023-04-16T23:59:51.362Z,9.42
